createdAt,value
2023-02-24T00:02:01.323Z,3.53
2023-02-24T00:04:32.018Z,3.30
2023-02-24T00:06:59.895Z,3.00
2023-02-24T00:09:28.605Z,2.55
2023-02-24T00:12:05.293Z,2.90
2023-02-24T00:14:34.814Z,2.60
2023-02-24T00:17:01.933Z,2.90
2023-02-24T00:19:34.017Z,2.35
2023-02-24T00:22:02.483Z,4.50
2023-02-24T00:24:29.633Z,2.22
2023-02-24T00:26:59.607Z,2.47
2023-02-24T00:29:28.773Z,2.75
2023-02-24T00:32:01.281Z,2.47
2023-02-24T00:34:34.027Z,2.47
2023-02-24T00:37:01.643Z,2.65
2023-02-24T00:39:30.275Z,2.42
2023-02-24T00:42:06.462Z,1.80
2023-02-24T00:44:39.136Z,1.90
2023-02-24T00:47:07.215Z,2.25
2023-02-24T00:49:35.994Z,1.80
2023-02-24T00:52:08.575Z,3.45
2023-02-24T00:54:38.126Z,1.95
2023-02-24T00:57:04.790Z,1.90
2023-02-24T00:59:31.406Z,1.30
2023-02-24T01:01:58.170Z,1.98
2023-02-24T01:04:25.061Z,1.88
2023-02-24T01:07:00.140Z,1.85
2023-02-24T01:09:29.723Z,1.63
2023-02-24T01:12:15.367Z,1.40
2023-02-24T01:14:44.816Z,1.20
2023-02-24T01:17:11.441Z,1.75
2023-02-24T01:19:39.147Z,1.40
2023-02-24T01:22:10.071Z,2.60
2023-02-24T01:24:39.834Z,1.63
2023-02-24T01:27:07.353Z,1.25
2023-02-24T01:29:39.303Z,1.30
2023-02-24T01:32:25.653Z,2.00
2023-02-24T01:34:52.839Z,1.80
2023-02-24T01:37:20.031Z,1.58
2023-02-24T01:39:47.478Z,1.42
2023-02-24T01:42:20.763Z,1.85
2023-02-24T01:44:47.796Z,2.03
2023-02-24T01:47:18.438Z,1.65
2023-02-24T01:49:48.052Z,1.63
2023-02-24T01:52:20.375Z,1.70
2023-02-24T01:54:50.872Z,1.10
2023-02-24T01:57:20.530Z,2.13
2023-02-24T01:59:50.098Z,1.65
2023-02-24T02:02:18.406Z,1.30
2023-02-24T02:04:54.623Z,1.90
2023-02-24T02:07:23.384Z,1.27
2023-02-24T02:09:54.634Z,1.00
2023-02-24T02:12:22.615Z,1.60
2023-02-24T02:14:54.148Z,1.05
2023-02-24T02:17:26.641Z,1.40
2023-02-24T02:20:15.971Z,1.67
2023-02-24T02:23:10.607Z,1.33
2023-02-24T02:25:58.836Z,1.70
2023-02-24T02:28:49.439Z,1.50
2023-02-24T02:31:29.271Z,1.95
2023-02-24T02:34:18.941Z,1.45
2023-02-24T02:36:58.607Z,1.92
2023-02-24T02:39:51.911Z,1.08
2023-02-24T02:42:42.679Z,1.63
2023-02-24T02:45:18.199Z,1.38
2023-02-24T02:47:51.992Z,1.33
2023-02-24T02:50:29.714Z,1.83
2023-02-24T02:53:03.050Z,1.58
2023-02-24T02:55:40.919Z,1.38
2023-02-24T02:58:14.842Z,1.70
2023-02-24T03:00:59.030Z,1.13
2023-02-24T03:03:28.011Z,1.25
2023-02-24T03:06:04.432Z,1.73
2023-02-24T03:08:37.242Z,1.48
2023-02-24T03:11:07.815Z,1.75
2023-02-24T03:13:41.174Z,1.23
2023-02-24T03:16:11.650Z,1.33
2023-02-24T03:18:44.840Z,1.13
2023-02-24T03:21:20.128Z,1.67
2023-02-24T03:23:50.808Z,1.40
2023-02-24T03:26:21.664Z,1.45
2023-02-24T03:29:11.034Z,1.50
2023-02-24T03:31:52.012Z,1.50
2023-02-24T03:34:30.966Z,1.77
2023-02-24T03:36:58.065Z,1.63
2023-02-24T03:39:25.449Z,2.13
2023-02-24T03:42:04.396Z,1.70
2023-02-24T03:44:31.077Z,1.75
2023-02-24T03:46:57.745Z,1.60
2023-02-24T03:49:25.467Z,2.63
2023-02-24T03:52:32.478Z,1.20
2023-02-24T03:55:01.992Z,1.98
2023-02-24T03:58:02.506Z,1.50
2023-02-24T04:00:41.186Z,1.58
2023-02-24T04:03:28.193Z,2.05
2023-02-24T04:06:30.503Z,1.30
2023-02-24T04:09:04.696Z,1.50
2023-02-24T04:11:43.784Z,1.50
2023-02-24T04:14:18.758Z,1.67
2023-02-24T04:16:57.148Z,1.52
2023-02-24T04:19:27.744Z,2.03
2023-02-24T04:21:55.537Z,1.77
2023-02-24T04:24:29.018Z,1.80
2023-02-24T04:26:59.529Z,1.38
2023-02-24T04:29:29.213Z,1.63
2023-02-24T04:32:05.882Z,1.55
2023-02-24T04:34:33.036Z,1.65
2023-02-24T04:37:02.379Z,1.50
2023-02-24T04:39:30.880Z,1.25
2023-02-24T04:41:58.982Z,1.60
2023-02-24T04:44:26.270Z,2.45
2023-02-24T04:46:52.963Z,1.30
2023-02-24T04:49:20.415Z,1.60
2023-02-24T04:51:47.277Z,1.30
2023-02-24T04:54:17.597Z,1.23
2023-02-24T04:56:45.213Z,1.50
2023-02-24T04:59:12.108Z,1.52
2023-02-24T05:01:40.112Z,1.55
2023-02-24T05:04:07.469Z,1.50
2023-02-24T05:06:34.443Z,1.70
2023-02-24T05:09:01.888Z,1.80
2023-02-24T05:11:34.922Z,1.45
2023-02-24T05:14:04.601Z,2.28
2023-02-24T05:16:31.998Z,1.80
2023-02-24T05:19:17.556Z,2.58
2023-02-24T05:21:44.136Z,1.67
2023-02-24T05:24:11.569Z,1.88
2023-02-24T05:26:41.858Z,1.85
2023-02-24T05:29:11.006Z,1.27
2023-02-24T05:31:38.457Z,1.70
2023-02-24T05:34:07.775Z,2.33
2023-02-24T05:36:40.618Z,3.15
2023-02-24T05:39:09.320Z,1.48
2023-02-24T05:41:39.515Z,2.05
2023-02-24T05:44:10.896Z,1.90
2023-02-24T05:46:40.362Z,1.83
2023-02-24T05:49:23.538Z,1.45
2023-02-24T05:51:55.479Z,1.83
2023-02-24T05:54:33.412Z,1.40
2023-02-24T05:57:05.158Z,1.33
2023-02-24T05:59:34.879Z,2.42
2023-02-24T06:02:09.257Z,2.78
2023-02-24T06:04:40.736Z,1.55
2023-02-24T06:07:19.112Z,1.35
2023-02-24T06:09:50.258Z,1.30
2023-02-24T06:12:18.756Z,1.50
2023-02-24T06:14:45.821Z,1.67
2023-02-24T06:17:15.159Z,1.40
2023-02-24T06:19:41.785Z,1.48
2023-02-24T06:22:13.134Z,1.30
2023-02-24T06:24:45.764Z,1.98
2023-02-24T06:27:18.920Z,1.77
2023-02-24T06:29:50.576Z,1.60
2023-02-24T06:32:23.850Z,1.77
2023-02-24T06:34:52.113Z,1.95
2023-02-24T06:37:18.990Z,2.17
2023-02-24T06:39:46.178Z,1.65
2023-02-24T06:42:13.246Z,2.75
2023-02-24T06:44:41.536Z,1.70
2023-02-24T06:47:13.377Z,2.53
2023-02-24T06:49:40.794Z,2.63
2023-02-24T06:52:08.711Z,1.95
2023-02-24T06:54:36.169Z,2.97
2023-02-24T06:57:03.747Z,1.92
2023-02-24T06:59:30.799Z,2.58
2023-02-24T07:02:04.546Z,2.42
2023-02-24T07:04:36.269Z,1.90
2023-02-24T07:07:03.564Z,2.42
2023-02-24T07:09:30.974Z,2.45
2023-02-24T07:11:58.832Z,2.60
2023-02-24T07:14:30.630Z,2.13
2023-02-24T07:16:58.399Z,2.25
2023-02-24T07:19:32.364Z,1.95
2023-02-24T07:22:01.952Z,2.75
2023-02-24T07:24:36.419Z,2.13
2023-02-24T07:27:06.602Z,2.30
2023-02-24T07:29:34.558Z,2.53
2023-02-24T07:32:05.684Z,2.40
2023-02-24T07:34:33.921Z,2.40
2023-02-24T07:37:06.632Z,2.65
2023-02-24T07:39:34.501Z,2.83
2023-02-24T07:42:01.121Z,3.47
2023-02-24T07:44:29.400Z,3.47
2023-02-24T07:46:59.179Z,2.28
2023-02-24T07:49:28.090Z,2.63
2023-02-24T07:51:57.811Z,2.83
2023-02-24T07:54:25.759Z,2.75
2023-02-24T07:56:59.172Z,2.80
2023-02-24T07:59:32.462Z,2.90
2023-02-24T08:01:59.448Z,2.53
2023-02-24T08:04:28.634Z,2.70
2023-02-24T08:06:56.291Z,2.78
2023-02-24T08:09:44.211Z,2.80
2023-02-24T08:12:21.582Z,3.67
2023-02-24T08:14:51.895Z,3.35
2023-02-24T08:17:20.378Z,2.55
2023-02-24T08:20:08.373Z,2.45
2023-02-24T08:22:37.406Z,2.65
2023-02-24T08:25:07.100Z,3.10
2023-02-24T08:27:42.229Z,3.15
2023-02-24T08:30:21.236Z,2.83
2023-02-24T08:32:52.599Z,3.33
2023-02-24T08:35:20.417Z,3.20
2023-02-24T08:37:50.009Z,3.33
2023-02-24T08:40:31.652Z,3.22
2023-02-24T08:43:16.114Z,2.95
2023-02-24T08:45:53.009Z,3.58
2023-02-24T08:51:04.602Z,2.83
2023-02-24T08:53:34.369Z,2.65
2023-02-24T08:56:09.633Z,2.65
2023-02-24T08:58:47.444Z,3.53
2023-02-24T09:01:26.005Z,3.00
2023-02-24T09:03:58.795Z,3.35
2023-02-24T09:06:50.318Z,3.20
2023-02-24T09:09:23.009Z,3.55
2023-02-24T09:11:55.964Z,3.25
2023-02-24T09:14:28.424Z,3.53
2023-02-24T09:17:05.772Z,2.65
2023-02-24T09:22:33.487Z,3.72
2023-02-24T09:25:36.935Z,3.45
2023-02-24T09:28:17.468Z,3.80
2023-02-24T09:30:53.469Z,3.53
2023-02-24T09:33:26.086Z,3.72
2023-02-24T09:36:10.667Z,3.10
2023-02-24T09:39:03.502Z,5.55
2023-02-24T09:42:05.746Z,3.75
2023-02-24T09:44:40.355Z,3.33
2023-02-24T09:47:20.650Z,3.63
2023-02-24T09:49:56.488Z,4.15
2023-02-24T09:52:39.776Z,4.15
2023-02-24T09:55:26.574Z,3.97
2023-02-24T09:58:18.166Z,4.15
2023-02-24T10:00:57.571Z,3.45
2023-02-24T10:03:42.596Z,4.63
2023-02-24T10:06:20.820Z,4.13
2023-02-24T10:08:58.152Z,3.75
2023-02-24T10:11:35.064Z,4.75
2023-02-24T10:16:44.311Z,4.35
2023-02-24T10:19:26.953Z,3.85
2023-02-24T10:22:03.130Z,2.90
2023-02-24T10:24:47.335Z,3.38
2023-02-24T10:27:27.984Z,3.83
2023-02-24T10:30:05.932Z,4.28
2023-02-24T10:32:52.124Z,4.20
2023-02-24T10:35:26.055Z,3.97
2023-02-24T10:37:53.637Z,3.53
2023-02-24T10:40:45.070Z,2.45
2023-02-24T10:43:19.618Z,4.25
2023-02-24T10:45:48.005Z,3.10
2023-02-24T10:48:40.370Z,2.92
2023-02-24T10:51:12.142Z,3.95
2023-02-24T10:53:39.267Z,3.67
2023-02-24T10:56:41.638Z,3.55
2023-02-24T10:59:37.582Z,3.30
2023-02-24T11:02:45.932Z,4.20
2023-02-24T11:08:36.370Z,3.08
2023-02-24T11:11:26.051Z,3.05
2023-02-24T11:14:12.627Z,2.67
2023-02-24T11:17:14.315Z,2.22
2023-02-24T11:19:55.055Z,2.38
2023-02-24T11:22:25.638Z,2.40
2023-02-24T11:24:53.240Z,1.60
2023-02-24T11:27:24.648Z,2.78
2023-02-24T11:30:14.882Z,1.80
2023-02-24T11:33:13.050Z,1.40
2023-02-24T11:35:47.926Z,1.50
2023-02-24T11:38:17.903Z,1.35
2023-02-24T11:40:52.228Z,2.10
2023-02-24T11:43:25.049Z,1.70
2023-02-24T11:46:25.599Z,2.72
2023-02-24T11:48:59.510Z,2.42
2023-02-24T11:51:37.119Z,2.28
2023-02-24T11:54:10.196Z,1.98
2023-02-24T11:56:44.051Z,1.95
2023-02-24T11:59:47.376Z,1.63
2023-02-24T12:02:30.255Z,1.50
2023-02-24T12:04:59.910Z,1.75
2023-02-24T12:07:42.589Z,1.52
2023-02-24T12:10:21.445Z,1.83
2023-02-24T12:13:04.279Z,1.90
2023-02-24T12:15:35.394Z,1.23
2023-02-24T12:18:16.673Z,1.73
2023-02-24T12:20:49.978Z,1.63
2023-02-24T12:23:36.892Z,1.30
2023-02-24T12:26:16.036Z,1.75
2023-02-24T12:29:03.548Z,1.50
2023-02-24T12:32:18.901Z,1.15
2023-02-24T12:35:16.808Z,1.15
2023-02-24T12:38:09.446Z,1.63
2023-02-24T12:40:54.828Z,2.65
2023-02-24T12:43:33.965Z,1.58
2023-02-24T12:46:00.590Z,2.00
2023-02-24T12:49:01.504Z,1.42
2023-02-24T12:51:28.092Z,1.58
2023-02-24T12:54:22.907Z,1.90
2023-02-24T12:56:53.678Z,1.70
2023-02-24T12:59:25.677Z,1.70
2023-02-24T13:01:59.894Z,1.30
2023-02-24T13:04:47.557Z,1.27
2023-02-24T13:07:36.576Z,1.20
2023-02-24T13:10:28.084Z,2.03
2023-02-24T13:13:03.709Z,1.05
2023-02-24T13:15:31.494Z,1.10
2023-02-24T13:17:58.833Z,1.52
2023-02-24T13:20:30.284Z,1.33
2023-02-24T13:22:58.970Z,1.27
2023-02-24T13:25:34.351Z,1.45
2023-02-24T13:28:20.266Z,1.50
2023-02-24T13:30:46.967Z,1.58
2023-02-24T13:33:19.657Z,1.65
2023-02-24T13:35:52.975Z,1.08
2023-02-24T13:38:37.014Z,1.40
2023-02-24T13:41:21.566Z,1.80
2023-02-24T13:43:54.272Z,2.25
2023-02-24T13:46:21.511Z,2.15
2023-02-24T13:49:12.139Z,1.40
2023-02-24T13:51:44.572Z,1.95
2023-02-24T13:54:29.450Z,1.75
2023-02-24T13:57:33.432Z,1.52
2023-02-24T14:00:12.180Z,1.73
2023-02-24T14:02:44.754Z,1.95
2023-02-24T14:05:19.679Z,2.47
2023-02-24T14:07:49.268Z,1.55
2023-02-24T14:10:25.350Z,1.60
2023-02-24T14:13:04.935Z,2.10
2023-02-24T14:15:32.469Z,2.40
2023-02-24T14:18:01.858Z,2.10
2023-02-24T14:20:32.729Z,1.50
2023-02-24T14:23:00.478Z,2.08
2023-02-24T14:25:34.056Z,2.30
2023-02-24T14:28:01.378Z,3.53
2023-02-24T14:30:32.225Z,1.95
2023-02-24T14:32:59.427Z,1.60
2023-02-24T14:35:28.788Z,1.92
2023-02-24T14:37:55.841Z,1.80
2023-02-24T14:40:25.483Z,2.13
2023-02-24T14:42:54.605Z,2.10
2023-02-24T14:45:28.113Z,1.42
2023-02-24T14:47:56.290Z,1.50
2023-02-24T14:50:31.968Z,1.92
2023-02-24T14:53:13.309Z,1.77
2023-02-24T14:55:43.242Z,1.60
2023-02-24T14:58:25.834Z,1.67
2023-02-24T15:00:59.016Z,2.67
2023-02-24T15:03:31.647Z,1.80
2023-02-24T15:06:01.014Z,1.67
2023-02-24T15:08:38.823Z,1.73
2023-02-24T15:11:17.113Z,1.75
2023-02-24T15:13:55.639Z,2.40
2023-02-24T15:16:39.437Z,2.03
2023-02-24T15:19:26.158Z,4.22
2023-02-24T15:21:53.599Z,2.28
2023-02-24T15:24:24.686Z,2.15
2023-02-24T15:26:57.972Z,2.78
2023-02-24T15:29:27.810Z,2.67
2023-02-24T15:31:59.843Z,2.08
2023-02-24T15:34:32.274Z,2.00
2023-02-24T15:37:04.393Z,2.00
2023-02-24T15:39:34.200Z,3.47
2023-02-24T15:42:20.811Z,1.85
2023-02-24T15:45:23.147Z,1.90
2023-02-24T15:47:54.733Z,2.53
2023-02-24T15:50:22.253Z,1.73
2023-02-24T15:52:49.434Z,1.23
2023-02-24T15:55:18.765Z,2.10
2023-02-24T15:57:47.797Z,1.83
2023-02-24T16:00:19.095Z,1.98
2023-02-24T16:02:46.852Z,2.08
2023-02-24T16:05:28.340Z,1.65
2023-02-24T16:07:55.209Z,1.55
2023-02-24T16:10:27.692Z,1.48
2023-02-24T16:12:59.808Z,1.65
2023-02-24T16:15:31.219Z,2.20
2023-02-24T16:17:59.043Z,1.75
2023-02-24T16:20:28.034Z,1.55
2023-02-24T16:22:57.158Z,1.92
2023-02-24T16:25:24.530Z,1.85
2023-02-24T16:27:57.226Z,2.70
2023-02-24T16:30:30.699Z,2.10
2023-02-24T16:33:00.618Z,2.10
2023-02-24T16:35:28.415Z,1.67
2023-02-24T16:37:55.199Z,1.45
2023-02-24T16:40:33.712Z,1.63
2023-02-24T16:43:00.331Z,1.75
2023-02-24T16:45:29.486Z,1.30
2023-02-24T16:48:02.140Z,1.33
2023-02-24T16:50:41.412Z,1.50
2023-02-24T16:53:09.104Z,1.38
2023-02-24T16:55:35.855Z,1.45
2023-02-24T16:58:02.492Z,1.70
2023-02-24T17:00:29.101Z,1.38
2023-02-24T17:02:55.767Z,1.45
2023-02-24T17:05:25.543Z,2.97
2023-02-24T17:07:55.110Z,2.20
2023-02-24T17:10:23.330Z,1.77
2023-02-24T17:12:50.372Z,1.40
2023-02-24T17:15:23.558Z,1.88
2023-02-24T17:17:50.633Z,1.10
2023-02-24T17:20:20.294Z,1.20
2023-02-24T17:22:47.016Z,1.25
2023-02-24T17:25:21.956Z,2.10
2023-02-24T17:27:48.828Z,2.35
2023-02-24T17:30:20.265Z,0.90
2023-02-24T17:32:46.994Z,1.50
2023-02-24T17:35:13.612Z,1.48
2023-02-24T17:37:40.308Z,1.42
2023-02-24T17:40:07.871Z,1.42
2023-02-24T17:42:34.739Z,1.50
2023-02-24T17:45:01.507Z,1.20
2023-02-24T17:47:28.375Z,1.20
2023-02-24T17:49:55.310Z,1.40
2023-02-24T17:52:22.151Z,1.10
2023-02-24T17:54:48.925Z,0.98
2023-02-24T17:57:15.673Z,1.58
2023-02-24T17:59:43.627Z,1.33
2023-02-24T18:02:11.618Z,1.58
2023-02-24T18:04:38.564Z,1.73
2023-02-24T18:07:05.223Z,1.70
2023-02-24T18:09:31.968Z,1.50
2023-02-24T18:11:58.621Z,1.17
2023-02-24T18:14:25.617Z,1.70
2023-02-24T18:16:52.439Z,2.78
2023-02-24T18:19:19.232Z,1.20
2023-02-24T18:21:45.924Z,1.20
2023-02-24T18:24:12.878Z,1.27
2023-02-24T18:26:39.904Z,1.38
2023-02-24T18:29:06.704Z,1.75
2023-02-24T18:31:34.057Z,1.52
2023-02-24T18:34:01.537Z,1.40
2023-02-24T18:36:28.579Z,2.25
2023-02-24T18:38:57.538Z,1.60
2023-02-24T18:41:24.863Z,1.75
2023-02-24T18:43:54.347Z,1.95
2023-02-24T18:46:22.384Z,1.90
2023-02-24T18:48:50.326Z,1.65
2023-02-24T18:51:20.894Z,1.27
2023-02-24T18:53:48.880Z,1.92
2023-02-24T18:56:20.016Z,1.30
2023-02-24T18:58:49.418Z,1.35
2023-02-24T19:01:21.961Z,1.25
2023-02-24T19:03:50.631Z,1.40
2023-02-24T19:06:21.655Z,1.17
2023-02-24T19:08:55.191Z,1.90
2023-02-24T19:11:21.821Z,1.55
2023-02-24T19:13:48.519Z,2.03
2023-02-24T19:16:17.077Z,1.30
2023-02-24T19:18:44.615Z,1.42
2023-02-24T19:21:13.357Z,1.35
2023-02-24T19:23:40.768Z,1.13
2023-02-24T19:26:15.649Z,1.83
2023-02-24T19:28:42.373Z,1.15
2023-02-24T19:31:17.258Z,1.20
2023-02-24T19:33:44.278Z,1.45
2023-02-24T19:36:11.489Z,1.13
2023-02-24T19:38:41.234Z,1.27
2023-02-24T19:41:08.200Z,1.45
2023-02-24T19:43:35.098Z,1.13
2023-02-24T19:46:06.766Z,1.58
2023-02-24T19:48:34.526Z,1.58
2023-02-24T19:51:10.614Z,1.48
2023-02-24T19:53:37.933Z,3.75
2023-02-24T19:56:04.961Z,1.50
2023-02-24T19:58:31.838Z,1.05
2023-02-24T20:01:09.722Z,1.17
2023-02-24T20:03:38.015Z,1.58
2023-02-24T20:06:05.312Z,1.77
2023-02-24T20:08:35.941Z,1.40
2023-02-24T20:11:04.721Z,1.92
2023-02-24T20:13:31.652Z,1.10
2023-02-24T20:16:11.824Z,2.05
2023-02-24T20:18:40.127Z,1.25
2023-02-24T20:21:07.775Z,1.40
2023-02-24T20:23:34.591Z,1.40
2023-02-24T20:26:01.927Z,1.20
2023-02-24T20:28:28.932Z,1.45
2023-02-24T20:30:57.367Z,1.52
2023-02-24T20:33:24.774Z,1.10
2023-02-24T20:35:51.805Z,1.33
2023-02-24T20:38:18.447Z,2.10
2023-02-24T20:40:45.202Z,2.63
2023-02-24T20:43:11.832Z,1.67
2023-02-24T20:45:40.981Z,1.67
2023-02-24T20:48:08.852Z,1.75
2023-02-24T20:50:36.107Z,1.40
2023-02-24T20:53:04.431Z,1.40
2023-02-24T20:55:31.349Z,1.50
2023-02-24T20:57:58.177Z,2.00
2023-02-24T21:00:25.307Z,2.03
2023-02-24T21:02:52.253Z,1.67
2023-02-24T21:05:23.804Z,1.50
2023-02-24T21:07:50.541Z,1.35
2023-02-24T21:10:18.407Z,2.45
2023-02-24T21:12:46.113Z,2.05
2023-02-24T21:15:12.907Z,1.65
2023-02-24T21:17:39.813Z,1.30
2023-02-24T21:20:11.171Z,2.05
2023-02-24T21:22:41.552Z,1.65
2023-02-24T21:25:10.851Z,1.98
2023-02-24T21:27:38.424Z,1.73
2023-02-24T21:30:09.709Z,1.33
2023-02-24T21:32:36.691Z,1.92
2023-02-24T21:35:04.145Z,2.33
2023-02-24T21:37:31.411Z,1.33
2023-02-24T21:39:58.766Z,2.17
2023-02-24T21:42:25.546Z,1.33
2023-02-24T21:44:52.409Z,2.13
2023-02-24T21:47:19.155Z,1.50
2023-02-24T21:49:46.352Z,2.25
2023-02-24T21:52:13.151Z,1.90
2023-02-24T21:54:40.280Z,2.05
2023-02-24T21:57:06.938Z,2.28
2023-02-24T21:59:33.649Z,1.92
2023-02-24T22:02:00.376Z,1.83
2023-02-24T22:04:27.063Z,1.42
2023-02-24T22:06:53.751Z,2.15
2023-02-24T22:09:20.662Z,1.70
2023-02-24T22:11:48.842Z,3.22
2023-02-24T22:14:15.979Z,1.75
2023-02-24T22:16:43.359Z,1.55
2023-02-24T22:19:10.840Z,1.20
2023-02-24T22:21:39.649Z,1.60
2023-02-24T22:24:06.700Z,1.50
2023-02-24T22:26:33.377Z,2.15
2023-02-24T22:29:00.848Z,1.42
2023-02-24T22:31:30.439Z,1.35
2023-02-24T22:33:57.502Z,1.63
2023-02-24T22:36:30.882Z,1.90
2023-02-24T22:38:58.957Z,1.73
2023-02-24T22:41:29.636Z,2.28
2023-02-24T22:43:56.261Z,1.40
2023-02-24T22:46:28.847Z,2.10
2023-02-24T22:48:56.541Z,1.80
2023-02-24T22:51:24.275Z,1.75
2023-02-24T22:53:51.881Z,1.63
2023-02-24T22:56:22.247Z,1.30
2023-02-24T22:58:49.590Z,1.73
2023-02-24T23:01:23.320Z,1.90
2023-02-24T23:03:50.813Z,1.45
2023-02-24T23:06:21.368Z,1.77
2023-02-24T23:08:50.369Z,1.50
2023-02-24T23:11:18.514Z,1.30
2023-02-24T23:13:47.801Z,1.48
2023-02-24T23:16:18.618Z,1.42
2023-02-24T23:18:50.690Z,1.30
2023-02-24T23:21:20.042Z,1.75
2023-02-24T23:23:47.353Z,1.45
2023-02-24T23:26:14.452Z,1.20
2023-02-24T23:28:41.294Z,1.40
2023-02-24T23:31:07.963Z,1.58
2023-02-24T23:33:35.019Z,1.70
2023-02-24T23:36:08.104Z,1.15
2023-02-24T23:38:34.913Z,1.38
2023-02-24T23:41:01.537Z,1.10
2023-02-24T23:43:28.147Z,1.30
2023-02-24T23:45:54.827Z,1.65
2023-02-24T23:48:21.448Z,1.30
2023-02-24T23:50:49.364Z,1.70
2023-02-24T23:53:15.953Z,1.70
2023-02-24T23:55:42.553Z,1.35
2023-02-24T23:58:09.153Z,1.67
